Terminal Aerodrome Forecast
Issued by NWS Sterling, VA

Current Version | Previous Version | Graphics & Text | Print | Product List | Glossary On
Versions: 1 2 3 4 5 6 7 8 9 10 11 12 13 14 15 16 17 18 19 20 21 22 23 24 25 26 27
000
FTUS41 KLWX 271500 AAA
TAFDCA
TAF AMD
KDCA 271521Z 2715/2812 32011G16KT P6SM FEW025 OVC045
     FM280100 32013G22KT P6SM BKN040
     FM280300 33012G20KT P6SM SCT070=

USA.gov is the U.S. government's official web portal to all federal, state and local government web resources and services.